Time;durP1;ratioP1;P1;durP2;ratioP2;P2;SDS_P1;SDS_P2;PMS_P1;PMS_P2;Temp;Humidity;BMP_temperature;BMP_pressure;BME280_temperature;BME280_humidity;BME280_pressure;Samples;Min_cycle;Max_cycle;Signal;HPM_P1;HPM_P2
2022/08/30 00:01:04;;;;;;;3.53;1.45;;;21.00;73.70;;;;;;4932457;29;20027;-76
2022/08/30 00:03:35;;;;;;;2.60;1.30;;;21.00;73.80;;;;;;4941009;29;20459;-76
2022/08/30 00:06:02;;;;;;;1.95;1.25;;;21.00;73.80;;;;;;4951278;28;20625;-75
2022/08/30 00:08:28;;;;;;;2.72;1.33;;;21.00;74.00;;;;;;4951926;28;20047;-76
2022/08/30 00:10:53;;;;;;;2.53;1.40;;;21.00;74.00;;;;;;4931907;28;20039;-77
2022/08/30 00:13:20;;;;;;;2.00;1.38;;;21.00;74.00;;;;;;4945891;29;20102;-75
2022/08/30 00:15:47;;;;;;;2.28;1.30;;;20.90;73.90;;;;;;4944513;29;20038;-76
2022/08/30 00:18:14;;;;;;;2.22;1.13;;;20.90;74.10;;;;;;4943659;29;20786;-77
2022/08/30 00:20:40;;;;;;;3.33;1.38;;;20.90;74.60;;;;;;4946195;29;20023;-76
2022/08/30 00:23:06;;;;;;;2.28;1.15;;;20.90;74.20;;;;;;4940471;29;20061;-77
2022/08/30 00:25:31;;;;;;;2.80;1.40;;;20.90;74.20;;;;;;4945457;29;20477;-77
2022/08/30 00:27:57;;;;;;;2.13;1.20;;;21.00;74.10;;;;;;4928759;29;20077;-77
2022/08/30 00:30:23;;;;;;;4.40;1.23;;;21.00;73.90;;;;;;4944972;29;20031;-77
2022/08/30 00:32:48;;;;;;;2.22;1.30;;;21.00;73.80;;;;;;4944851;29;20383;-78
2022/08/30 00:35:17;;;;;;;2.72;1.25;;;21.00;73.70;;;;;;4945113;29;20115;-78
2022/08/30 00:37:43;;;;;;;2.10;1.17;;;21.00;73.50;;;;;;4942228;29;20035;-77
2022/08/30 00:40:10;;;;;;;2.53;1.23;;;21.00;73.70;;;;;;4945091;29;20035;-77
2022/08/30 00:42:38;;;;;;;1.35;1.10;;;21.00;73.70;;;;;;4945822;29;20520;-77
2022/08/30 00:45:31;;;;;;;2.00;1.10;;;21.00;73.70;;;;;;4945147;29;20102;-77
2022/08/30 00:47:58;;;;;;;2.30;1.30;;;21.00;73.80;;;;;;4922536;29;20498;-77
2022/08/30 00:50:28;;;;;;;3.83;1.38;;;21.00;73.80;;;;;;4941658;29;20067;-78
2022/08/30 00:52:58;;;;;;;1.77;1.17;;;21.00;74.00;;;;;;4944853;29;20090;-78
2022/08/30 00:55:23;;;;;;;1.35;1.05;;;20.90;73.90;;;;;;4933608;29;20035;-79
2022/08/30 00:57:53;;;;;;;2.65;1.50;;;20.90;74.00;;;;;;4945843;29;20019;-78
2022/08/30 01:00:19;;;;;;;2.30;1.20;;;20.90;74.00;;;;;;4945871;29;20028;-76
2022/08/30 01:02:45;;;;;;;2.83;1.30;;;20.90;74.00;;;;;;4929357;29;20448;-77
2022/08/30 01:05:12;;;;;;;1.75;1.13;;;20.90;74.00;;;;;;4944801;29;20031;-78
2022/08/30 01:07:38;;;;;;;3.28;1.10;;;20.90;74.10;;;;;;4945671;29;20016;-76
2022/08/30 01:10:05;;;;;;;3.00;1.30;;;20.90;74.00;;;;;;4945113;29;20039;-77
2022/08/30 01:12:31;;;;;;;2.80;1.27;;;20.90;74.20;;;;;;4945617;29;20039;-75
2022/08/30 01:14:58;;;;;;;2.13;1.20;;;20.80;74.10;;;;;;4945202;29;20575;-77
2022/08/30 01:17:25;;;;;;;2.30;1.30;;;20.90;74.10;;;;;;4929913;29;20663;-79
2022/08/30 01:19:59;;;;;;;2.28;1.30;;;20.90;74.00;;;;;;4946840;29;20138;-77
2022/08/30 01:22:38;;;;;;;1.63;1.10;;;21.00;73.80;;;;;;4930337;29;20039;-75
2022/08/30 01:25:06;;;;;;;2.15;1.25;;;21.00;73.60;;;;;;4933287;28;20122;-77
2022/08/30 01:27:35;;;;;;;2.42;1.30;;;21.00;73.50;;;;;;4943127;29;20024;-78
2022/08/30 01:30:01;;;;;;;2.33;1.20;;;21.00;73.60;;;;;;4944885;28;20494;-77
2022/08/30 01:32:28;;;;;;;2.20;1.27;;;20.90;73.60;;;;;;4941521;29;20081;-78
2022/08/30 01:34:55;;;;;;;1.95;1.08;;;20.90;73.50;;;;;;4943171;29;20096;-77
2022/08/30 01:37:28;;;;;;;2.35;1.20;;;20.90;73.80;;;;;;4940345;29;20045;-77
2022/08/30 01:39:53;;;;;;;2.92;1.40;;;20.90;73.80;;;;;;4945531;29;20019;-77
2022/08/30 01:42:19;;;;;;;2.17;1.05;;;20.80;73.80;;;;;;4942688;28;20027;-77
2022/08/30 01:44:46;;;;;;;2.70;1.20;;;20.80;73.90;;;;;;4927170;29;20123;-79
2022/08/30 01:47:12;;;;;;;2.28;1.30;;;20.90;74.10;;;;;;4944763;29;20019;-78
2022/08/30 01:49:39;;;;;;;2.15;1.30;;;20.80;74.10;;;;;;4947531;29;20023;-77
2022/08/30 01:52:05;;;;;;;1.40;1.13;;;20.80;74.10;;;;;;4931398;28;20062;-80
2022/08/30 01:54:32;;;;;;;2.38;1.30;;;20.80;74.10;;;;;;4946977;29;20719;-78
2022/08/30 01:56:58;;;;;;;2.38;1.20;;;20.80;74.10;;;;;;4947807;29;20031;-80
2022/08/30 01:59:24;;;;;;;2.85;1.20;;;20.80;74.20;;;;;;4948380;29;20406;-78
2022/08/30 02:01:49;;;;;;;4.00;1.30;;;20.80;74.30;;;;;;4947618;28;20035;-77
2022/08/30 02:04:15;;;;;;;3.13;1.30;;;20.80;74.20;;;;;;4947073;28;20031;-78
2022/08/30 02:06:40;;;;;;;3.67;1.48;;;20.90;74.20;;;;;;4947850;29;20106;-78
2022/08/30 02:09:06;;;;;;;4.63;1.50;;;20.80;74.00;;;;;;4936528;29;20064;-78
2022/08/30 02:11:32;;;;;;;1.95;1.10;;;20.80;73.90;;;;;;4933883;29;20032;-78
2022/08/30 02:13:58;;;;;;;1.75;1.10;;;20.90;73.80;;;;;;4946755;29;20027;-78
2022/08/30 02:16:24;;;;;;;2.78;1.30;;;20.90;73.80;;;;;;4945434;28;20449;-78
2022/08/30 02:18:51;;;;;;;3.10;1.40;;;20.90;73.80;;;;;;4948129;29;20027;-76
2022/08/30 02:21:17;;;;;;;2.75;1.30;;;20.80;73.80;;;;;;4945455;29;20035;-80
2022/08/30 02:23:43;;;;;;;1.90;1.20;;;20.90;74.00;;;;;;4947057;29;20529;-78
2022/08/30 02:26:09;;;;;;;1.70;1.02;;;20.80;74.00;;;;;;4923745;29;20032;-79
2022/08/30 02:28:35;;;;;;;1.67;1.10;;;20.80;74.10;;;;;;4947090;29;20085;-77
2022/08/30 02:31:01;;;;;;;1.58;1.10;;;20.80;74.20;;;;;;4939855;29;20028;-77
2022/08/30 02:33:27;;;;;;;2.67;1.30;;;20.80;74.20;;;;;;4930158;28;20031;-77
2022/08/30 02:35:52;;;;;;;2.88;1.20;;;20.80;74.20;;;;;;4947481;29;20035;-77
2022/08/30 02:38:18;;;;;;;1.80;1.23;;;20.80;74.20;;;;;;4947222;29;20019;-77
2022/08/30 02:40:43;;;;;;;1.52;1.10;;;20.80;74.30;;;;;;4947155;29;20617;-77
2022/08/30 02:43:10;;;;;;;3.22;1.30;;;20.80;74.40;;;;;;4946774;29;20050;-77
2022/08/30 02:45:36;;;;;;;1.48;1.10;;;20.80;74.40;;;;;;4946126;29;20390;-77
2022/08/30 02:48:03;;;;;;;3.38;1.40;;;20.70;74.40;;;;;;4946647;28;20452;-78
2022/08/30 02:50:28;;;;;;;3.00;1.10;;;20.70;74.50;;;;;;4921043;28;20056;-77
2022/08/30 02:52:54;;;;;;;2.78;1.20;;;20.70;74.40;;;;;;4947284;29;20480;-78
2022/08/30 02:55:19;;;;;;;2.10;1.20;;;20.80;74.40;;;;;;4946211;29;20378;-77
2022/08/30 02:57:46;;;;;;;1.88;1.10;;;20.80;74.30;;;;;;4939899;28;20035;-77
2022/08/30 03:00:15;;;;;;;3.03;1.10;;;20.80;74.20;;;;;;4925587;28;20062;-77
2022/08/30 03:02:40;;;;;;;2.08;1.10;;;20.80;74.00;;;;;;4953027;28;20030;-78
2022/08/30 03:05:08;;;;;;;1.55;1.10;;;20.80;73.90;;;;;;4966309;28;20781;-77
2022/08/30 03:07:33;;;;;;;2.10;1.20;;;20.80;73.90;;;;;;4947517;28;20053;-77
2022/08/30 03:09:59;;;;;;;1.83;1.17;;;20.80;73.90;;;;;;4939026;29;20019;-79
2022/08/30 03:12:24;;;;;;;1.90;1.10;;;20.80;74.00;;;;;;4941219;29;20043;-77
2022/08/30 03:14:50;;;;;;;1.75;1.00;;;20.80;74.10;;;;;;4930994;29;20119;-78
2022/08/30 03:17:16;;;;;;;2.25;1.13;;;20.80;74.20;;;;;;4945579;28;20042;-77
2022/08/30 03:19:42;;;;;;;2.58;1.13;;;20.70;74.20;;;;;;4947396;29;20043;-77
2022/08/30 03:22:08;;;;;;;1.65;1.05;;;20.70;74.30;;;;;;4929947;29;20027;-77
2022/08/30 03:24:34;;;;;;;2.17;0.90;;;20.70;74.40;;;;;;4929081;29;20116;-78
2022/08/30 03:26:59;;;;;;;2.47;0.90;;;20.60;74.30;;;;;;4945751;29;20062;-76
2022/08/30 03:29:25;;;;;;;2.83;1.00;;;20.60;74.40;;;;;;4929626;28;20031;-76
2022/08/30 03:31:51;;;;;;;2.13;1.00;;;20.70;74.50;;;;;;4930289;29;20035;-77
2022/08/30 03:34:17;;;;;;;2.45;1.00;;;20.70;74.50;;;;;;4930247;29;20084;-79
2022/08/30 03:36:42;;;;;;;1.42;0.95;;;20.70;74.60;;;;;;4946523;29;20027;-76
2022/08/30 03:39:09;;;;;;;2.92;1.10;;;20.70;74.60;;;;;;4946427;29;20110;-76
2022/08/30 03:41:34;;;;;;;2.10;1.20;;;20.70;74.60;;;;;;4946155;28;20050;-77
2022/08/30 03:44:01;;;;;;;2.33;1.10;;;20.70;74.60;;;;;;4940830;28;20020;-78
2022/08/30 03:46:27;;;;;;;1.52;0.98;;;20.70;74.50;;;;;;4946384;29;20085;-77
2022/08/30 03:48:54;;;;;;;1.55;1.00;;;20.70;74.30;;;;;;4945907;29;20031;-78
2022/08/30 03:51:21;;;;;;;2.60;1.20;;;20.70;74.20;;;;;;4946482;29;20114;-78
2022/08/30 03:53:46;;;;;;;1.58;1.00;;;20.70;74.10;;;;;;4931603;29;20031;-81
2022/08/30 03:56:12;;;;;;;1.63;1.00;;;20.70;74.10;;;;;;4935002;28;20036;-78
2022/08/30 03:58:39;;;;;;;2.08;1.10;;;20.80;74.10;;;;;;4939003;29;20035;-78
2022/08/30 04:01:05;;;;;;;2.22;1.40;;;20.70;74.10;;;;;;4938467;29;20041;-78
2022/08/30 04:03:31;;;;;;;2.45;1.08;;;20.70;74.20;;;;;;4946708;29;20035;-78
2022/08/30 04:05:57;;;;;;;1.35;1.05;;;20.70;74.30;;;;;;4945808;29;20031;-78
2022/08/30 04:08:23;;;;;;;2.15;1.10;;;20.70;74.40;;;;;;4927753;29;20027;-78
2022/08/30 04:10:49;;;;;;;2.88;1.20;;;20.60;74.50;;;;;;4929121;29;20028;-77
2022/08/30 04:13:15;;;;;;;2.95;1.30;;;20.70;74.60;;;;;;4946210;29;20208;-81
2022/08/30 04:15:40;;;;;;;2.28;1.27;;;20.70;74.60;;;;;;4945845;29;20035;-77
2022/08/30 04:18:06;;;;;;;2.10;1.30;;;20.60;74.60;;;;;;4946561;28;20399;-77
2022/08/30 04:20:31;;;;;;;2.00;1.20;;;20.60;74.60;;;;;;4946056;29;20540;-78
2022/08/30 04:22:57;;;;;;;2.33;1.00;;;20.60;74.70;;;;;;4920269;29;20031;-80
2022/08/30 04:25:23;;;;;;;2.35;1.10;;;20.60;74.80;;;;;;4928975;29;20700;-78
2022/08/30 04:27:49;;;;;;;2.88;1.15;;;20.60;74.80;;;;;;4940939;28;20028;-77
2022/08/30 04:30:16;;;;;;;2.78;1.10;;;20.60;74.90;;;;;;4929380;29;20027;-76
2022/08/30 04:32:43;;;;;;;2.28;1.23;;;20.60;74.90;;;;;;4922512;28;20037;-76
2022/08/30 04:35:10;;;;;;;2.08;1.10;;;20.60;74.70;;;;;;4930211;29;20023;-79
2022/08/30 04:37:37;;;;;;;1.90;1.13;;;20.60;74.70;;;;;;4925026;29;20118;-79
2022/08/30 04:40:03;;;;;;;2.47;1.20;;;20.60;75.10;;;;;;4929122;29;20037;-78
2022/08/30 04:42:31;;;;;;;1.52;0.95;;;20.60;74.40;;;;;;4928686;29;20035;-80
2022/08/30 04:44:59;;;;;;;2.72;1.25;;;20.70;74.40;;;;;;4938525;28;20074;-78
2022/08/30 04:47:24;;;;;;;1.92;1.10;;;20.70;74.40;;;;;;4912265;29;20081;-81
2022/08/30 04:49:51;;;;;;;1.90;1.15;;;20.60;74.50;;;;;;4928177;29;20035;-76
2022/08/30 04:52:18;;;;;;;2.60;1.20;;;20.60;74.50;;;;;;4940364;29;20063;-79
2022/08/30 04:54:44;;;;;;;1.95;1.20;;;20.60;74.60;;;;;;4929312;29;20413;-77
2022/08/30 04:57:10;;;;;;;3.28;1.27;;;20.60;74.60;;;;;;4946233;29;20031;-78
2022/08/30 04:59:38;;;;;;;2.38;1.20;;;20.60;74.70;;;;;;4919038;28;20034;-83
2022/08/30 05:02:07;;;;;;;2.50;1.10;;;20.60;74.50;;;;;;4959386;28;20398;-78
2022/08/30 05:04:35;;;;;;;5.03;1.20;;;20.60;74.40;;;;;;4944527;28;20073;-77
2022/08/30 05:07:00;;;;;;;3.95;1.30;;;20.50;74.60;;;;;;4926664;28;20041;-77
2022/08/30 05:09:26;;;;;;;2.83;1.40;;;20.60;74.60;;;;;;4929326;29;20028;-76
2022/08/30 05:11:52;;;;;;;2.72;1.08;;;20.50;74.60;;;;;;4947389;29;20046;-79
2022/08/30 05:14:17;;;;;;;3.83;1.30;;;20.50;74.90;;;;;;4929628;29;20027;-77
2022/08/30 05:16:43;;;;;;;5.93;1.70;;;20.50;74.60;;;;;;4951553;29;20035;-83
2022/08/30 05:19:08;;;;;;;6.05;1.48;;;20.50;74.80;;;;;;4938965;29;20035;-78
2022/08/30 05:21:34;;;;;;;2.72;1.40;;;20.50;74.90;;;;;;4954778;29;20049;-77
2022/08/30 05:24:00;;;;;;;3.28;1.20;;;20.50;74.80;;;;;;4958067;28;20031;-79
2022/08/30 05:26:29;;;;;;;3.67;1.38;;;20.50;74.70;;;;;;4957604;29;20110;-78
2022/08/30 05:28:54;;;;;;;2.75;1.35;;;20.60;74.70;;;;;;4939911;29;20019;-79
2022/08/30 05:31:29;;;;;;;4.20;1.70;;;20.60;74.50;;;;;;4944379;28;20047;-77
2022/08/30 05:33:55;;;;;;;4.03;1.40;;;20.60;74.60;;;;;;4959321;29;20044;-78
2022/08/30 05:36:33;;;;;;;3.25;1.25;;;20.50;74.50;;;;;;4936711;29;20413;-78
2022/08/30 05:39:01;;;;;;;3.45;1.67;;;20.60;74.70;;;;;;4956745;29;20103;-78
2022/08/30 05:41:27;;;;;;;4.22;1.52;;;20.60;74.70;;;;;;4956117;29;20037;-78
2022/08/30 05:43:58;;;;;;;4.03;2.03;;;20.50;74.70;;;;;;4955028;29;20051;-78
2022/08/30 05:46:27;;;;;;;4.00;1.88;;;20.50;74.80;;;;;;4955240;29;20480;-79
2022/08/30 05:48:54;;;;;;;4.75;2.22;;;20.50;75.30;;;;;;4954916;29;20034;-80
2022/08/30 05:51:23;;;;;;;4.35;2.38;;;20.40;74.80;;;;;;4954924;29;20110;-79
2022/08/30 05:53:50;;;;;;;6.10;2.55;;;20.40;74.90;;;;;;4938194;29;20095;-79
2022/08/30 05:56:19;;;;;;;5.07;2.70;;;20.40;75.10;;;;;;4937052;29;20035;-80
2022/08/30 05:58:46;;;;;;;5.50;3.08;;;20.50;75.30;;;;;;4955376;29;20599;-79
2022/08/30 06:01:26;;;;;;;5.93;2.95;;;20.40;75.20;;;;;;4954679;29;20039;-79
2022/08/30 06:03:53;;;;;;;;;;;20.40;75.20;;;;;;4939512;29;20028;-79
2022/08/30 06:06:19;;;;;;;6.97;2.88;;;20.40;75.30;;;;;;4956157;29;20305;-79
2022/08/30 06:08:46;;;;;;;6.78;3.80;;;20.40;75.40;;;;;;4940018;29;20037;-78
2022/08/30 06:11:13;;;;;;;6.00;2.88;;;20.40;75.30;;;;;;4938678;29;20019;-78
2022/08/30 06:13:39;;;;;;;7.10;3.55;;;20.40;75.40;;;;;;4955281;29;20039;-79
2022/08/30 06:16:05;;;;;;;6.47;3.45;;;20.40;75.40;;;;;;4955154;29;20406;-77
2022/08/30 06:18:30;;;;;;;6.38;3.75;;;20.40;75.40;;;;;;4938099;28;20031;-78
2022/08/30 06:20:56;;;;;;;6.30;3.92;;;20.40;75.40;;;;;;4955921;29;20118;-78
2022/08/30 06:23:21;;;;;;;8.27;4.40;;;20.50;75.50;;;;;;4937363;29;20031;-78
2022/08/30 06:25:47;;;;;;;6.40;4.35;;;20.50;75.40;;;;;;4954722;29;20081;-79
2022/08/30 06:28:13;;;;;;;7.70;4.80;;;20.40;75.50;;;;;;4954711;29;20027;-78
2022/08/30 06:30:40;;;;;;;6.75;4.40;;;20.40;75.50;;;;;;4937324;29;20030;-78
2022/08/30 06:33:06;;;;;;;7.93;5.28;;;20.40;75.60;;;;;;4936984;28;20038;-79
2022/08/30 06:35:31;;;;;;;7.55;4.40;;;20.40;75.60;;;;;;4953326;29;20031;-78
2022/08/30 06:37:57;;;;;;;7.53;5.07;;;20.40;75.60;;;;;;4954094;29;20520;-78
2022/08/30 06:40:23;;;;;;;7.28;5.00;;;20.50;75.60;;;;;;4953867;29;20027;-78
2022/08/30 06:42:50;;;;;;;7.18;4.80;;;20.40;75.60;;;;;;4936405;29;20490;-78
2022/08/30 06:45:16;;;;;;;7.35;5.18;;;20.50;75.60;;;;;;4953474;29;20054;-78
2022/08/30 06:47:43;;;;;;;6.70;4.18;;;20.50;75.50;;;;;;4936454;29;20030;-78
2022/08/30 06:50:11;;;;;;;8.82;5.82;;;20.50;75.50;;;;;;4953767;29;20085;-78
2022/08/30 06:52:37;;;;;;;9.48;6.50;;;20.50;75.50;;;;;;4953258;28;20023;-78
2022/08/30 06:55:03;;;;;;;8.07;6.07;;;20.60;75.70;;;;;;4953275;29;20034;-78
2022/08/30 06:57:29;;;;;;;7.63;5.45;;;20.60;75.50;;;;;;4953718;29;20550;-79
2022/08/30 06:59:56;;;;;;;8.50;5.93;;;20.60;75.40;;;;;;4953262;29;20039;-78
2022/08/30 07:02:21;;;;;;;8.07;5.93;;;20.70;75.30;;;;;;4953185;29;20154;-78
2022/08/30 07:04:47;;;;;;;9.88;5.85;;;20.70;75.10;;;;;;4936208;28;20110;-79
2022/08/30 07:07:13;;;;;;;7.00;5.60;;;20.70;75.00;;;;;;4954292;29;20073;-79
2022/08/30 07:09:42;;;;;;;7.90;5.60;;;20.70;75.00;;;;;;4954266;29;20405;-79
2022/08/30 07:12:11;;;;;;;7.78;5.93;;;20.80;74.90;;;;;;4936484;29;20034;-79
2022/08/30 07:14:37;;;;;;;7.68;5.90;;;20.70;75.00;;;;;;4936100;28;20432;-78
2022/08/30 07:18:49;;;;;;;7.00;5.30;;;20.80;75.10;;;;;;4936339;29;20081;-79
2022/08/30 07:19:49;;;;;;;8.10;5.55;;;20.80;75.10;;;;;;4953486;29;20421;-78
2022/08/30 07:22:15;;;;;;;8.38;5.50;;;20.70;75.10;;;;;;4936575;28;20031;-79
2022/08/30 07:24:40;;;;;;;8.10;5.78;;;20.70;75.20;;;;;;4952910;29;20027;-78
2022/08/30 07:27:06;;;;;;;7.88;5.88;;;20.70;75.20;;;;;;4953311;29;20437;-78
2022/08/30 07:29:31;;;;;;;7.85;5.80;;;20.70;75.20;;;;;;4953158;29;20102;-79
2022/08/30 07:31:57;;;;;;;8.15;5.85;;;20.70;75.10;;;;;;4935606;29;20490;-79
2022/08/30 07:34:22;;;;;;;7.63;5.80;;;20.80;75.20;;;;;;4935302;29;20085;-77
2022/08/30 07:36:48;;;;;;;8.95;6.32;;;20.70;75.10;;;;;;4935705;29;20031;-78
2022/08/30 07:39:13;;;;;;;7.40;5.45;;;20.80;75.10;;;;;;4953040;29;20109;-78
2022/08/30 07:41:39;;;;;;;7.18;5.40;;;20.80;75.00;;;;;;4935751;29;20658;-78
2022/08/30 07:44:07;;;;;;;7.43;5.40;;;20.90;75.00;;;;;;4952692;29;20058;-78
2022/08/30 07:46:34;;;;;;;7.57;5.70;;;20.90;75.00;;;;;;4951430;28;20032;-78
2022/08/30 07:49:00;;;;;;;7.68;5.45;;;20.90;75.00;;;;;;4953146;29;20474;-78
2022/08/30 07:51:27;;;;;;;6.80;4.85;;;21.00;74.80;;;;;;4952822;29;20433;-79
2022/08/30 07:53:53;;;;;;;7.20;5.32;;;21.00;74.50;;;;;;4952759;29;20219;-79
2022/08/30 07:56:20;;;;;;;7.15;5.20;;;21.10;74.50;;;;;;4952095;28;20089;-78
2022/08/30 07:58:45;;;;;;;7.70;5.25;;;21.10;74.20;;;;;;4952295;29;20560;-79
2022/08/30 08:01:11;;;;;;;7.25;5.25;;;21.10;74.10;;;;;;4934902;29;20035;-79
2022/08/30 08:03:39;;;;;;;7.00;5.47;;;21.10;74.10;;;;;;4935110;29;20019;-78
2022/08/30 08:06:06;;;;;;;8.68;5.78;;;21.20;74.20;;;;;;4934445;29;20441;-78
2022/08/30 08:08:33;;;;;;;7.78;5.13;;;21.20;73.80;;;;;;4933893;28;20019;-78
2022/08/30 08:11:13;;;;;;;8.02;5.45;;;21.30;73.90;;;;;;4935056;28;20028;-78
2022/08/30 08:13:39;;;;;;;8.68;5.88;;;21.30;73.80;;;;;;4952174;29;20023;-78
2022/08/30 08:16:05;;;;;;;7.07;5.45;;;21.30;73.90;;;;;;4951897;28;20506;-78
2022/08/30 08:18:30;;;;;;;7.38;5.55;;;21.30;73.70;;;;;;4934408;28;20043;-77
2022/08/30 08:20:56;;;;;;;9.13;5.43;;;21.30;73.50;;;;;;4935139;28;20077;-78
2022/08/30 08:23:22;;;;;;;7.40;5.28;;;21.30;73.50;;;;;;4951711;29;20036;-78
2022/08/30 08:25:47;;;;;;;7.28;5.32;;;21.30;73.50;;;;;;4934905;28;20027;-78
2022/08/30 08:28:13;;;;;;;7.00;5.35;;;21.40;73.50;;;;;;4935734;28;20414;-79
2022/08/30 08:30:39;;;;;;;7.88;5.40;;;21.40;73.40;;;;;;4937691;28;20034;-78
2022/08/30 08:33:05;;;;;;;7.32;5.78;;;21.50;73.20;;;;;;4936164;28;20446;-79
2022/08/30 08:35:31;;;;;;;7.78;5.63;;;21.50;73.20;;;;;;4952323;28;20027;-78
2022/08/30 08:37:57;;;;;;;7.28;5.55;;;21.60;73.20;;;;;;4952615;28;20031;-79
2022/08/30 08:40:22;;;;;;;7.60;5.20;;;21.60;72.80;;;;;;4952486;28;20042;-78
2022/08/30 08:43:02;;;;;;;7.53;5.57;;;21.70;72.50;;;;;;4935093;28;20028;-78
2022/08/30 08:45:41;;;;;;;7.15;5.28;;;21.70;72.50;;;;;;4934975;29;20034;-78
2022/08/30 08:48:27;;;;;;;7.93;5.38;;;21.70;72.40;;;;;;4952117;29;20024;-78
2022/08/30 08:53:39;;;;;;;7.28;5.63;;;21.80;71.90;;;;;;4952006;29;20045;-79
2022/08/30 08:56:13;;;;;;;7.30;5.53;;;21.70;72.10;;;;;;4951265;28;20056;-78
2022/08/30 08:58:45;;;;;;;7.38;4.78;;;21.80;72.00;;;;;;4951221;28;20019;-78
2022/08/30 09:01:12;;;;;;;7.00;5.15;;;21.80;72.20;;;;;;4951357;28;20031;-79
2022/08/30 09:03:38;;;;;;;8.75;5.93;;;21.80;72.00;;;;;;4933947;28;20027;-78
2022/08/30 09:06:18;;;;;;;8.10;5.82;;;21.80;71.90;;;;;;4950925;28;20559;-78
2022/08/30 09:08:43;;;;;;;8.73;5.80;;;21.80;71.70;;;;;;4951098;29;20031;-78
2022/08/30 09:11:15;;;;;;;7.00;5.55;;;21.80;72.00;;;;;;4951122;28;20394;-78
2022/08/30 09:13:41;;;;;;;7.05;5.70;;;21.90;71.80;;;;;;4950928;29;20028;-78
2022/08/30 09:16:06;;;;;;;9.65;6.25;;;21.90;71.60;;;;;;4933670;28;20027;-78
2022/08/30 09:18:46;;;;;;;8.57;5.55;;;22.00;71.80;;;;;;4950844;28;20043;-78
2022/08/30 09:21:19;;;;;;;7.80;5.85;;;22.00;71.80;;;;;;4933867;28;20019;-78
2022/08/30 09:23:54;;;;;;;7.53;5.63;;;22.00;71.80;;;;;;4951358;29;20510;-78
2022/08/30 09:26:34;;;;;;;7.68;5.85;;;22.00;71.60;;;;;;4950889;29;20046;-78
2022/08/30 09:29:00;;;;;;;6.65;5.63;;;22.00;71.60;;;;;;4933934;29;20398;-78
2022/08/30 09:31:29;;;;;;;8.23;5.60;;;22.00;71.40;;;;;;4934014;28;20031;-78
2022/08/30 09:33:54;;;;;;;8.23;5.47;;;22.00;71.30;;;;;;4934118;28;20175;-78
2022/08/30 09:36:39;;;;;;;8.38;5.35;;;22.00;71.50;;;;;;4933677;28;20097;-78
2022/08/30 09:39:32;;;;;;;7.00;5.60;;;22.00;71.60;;;;;;4933900;28;20114;-78
2022/08/30 09:42:19;;;;;;;7.13;5.90;;;22.00;71.60;;;;;;4950371;28;20577;-78
2022/08/30 09:44:45;;;;;;;7.07;5.72;;;22.00;71.70;;;;;;4950193;29;20035;-78
2022/08/30 09:47:29;;;;;;;8.57;6.18;;;22.00;71.60;;;;;;4933455;28;20399;-78
2022/08/30 09:50:21;;;;;;;7.25;5.88;;;22.00;71.30;;;;;;4950415;29;20402;-78
2022/08/30 09:52:52;;;;;;;7.38;5.93;;;22.00;71.40;;;;;;4950555;29;20023;-78
2022/08/30 09:56:02;;;;;;;7.30;6.20;;;22.00;71.60;;;;;;4932721;29;20042;-78
2022/08/30 09:58:41;;;;;;;7.15;5.53;;;22.00;71.70;;;;;;4933340;29;20031;-78
2022/08/30 10:01:22;;;;;;;7.75;5.80;;;22.00;71.60;;;;;;4933323;29;20027;-78
2022/08/30 10:04:06;;;;;;;7.07;5.68;;;22.00;71.50;;;;;;4933470;28;20405;-79
2022/08/30 10:06:43;;;;;;;7.55;5.45;;;22.10;71.40;;;;;;4933008;29;20019;-78
2022/08/30 10:09:33;;;;;;;7.40;5.80;;;22.10;71.10;;;;;;4950979;28;20015;-78
2022/08/30 10:12:30;;;;;;;6.72;5.50;;;22.20;71.10;;;;;;4936688;29;20043;-79
2022/08/30 10:15:19;;;;;;;7.18;5.50;;;22.20;71.20;;;;;;4953272;29;20508;-78
2022/08/30 10:18:15;;;;;;;7.63;5.53;;;22.20;71.00;;;;;;4936389;28;20042;-78
2022/08/30 10:20:52;;;;;;;7.30;5.70;;;22.20;70.90;;;;;;4936359;29;20085;-78
2022/08/30 10:23:27;;;;;;;6.88;4.60;;;22.20;71.00;;;;;;4954813;29;20031;-79
2022/08/30 10:26:02;;;;;;;7.72;5.18;;;22.20;70.80;;;;;;4953727;29;20019;-79
2022/08/30 10:28:42;;;;;;;6.68;5.00;;;22.10;70.60;;;;;;4936711;29;20023;-78
2022/08/30 10:31:15;;;;;;;6.93;4.82;;;22.10;70.60;;;;;;4936223;29;20031;-78
2022/08/30 10:33:49;;;;;;;5.82;4.30;;;22.10;70.80;;;;;;4936417;29;20516;-79
2022/08/30 10:36:26;;;;;;;6.63;4.63;;;22.10;70.60;;;;;;4935760;29;20043;-78
2022/08/30 10:38:53;;;;;;;5.30;3.80;;;22.10;70.60;;;;;;4936376;29;20077;-78
2022/08/30 10:41:36;;;;;;;6.25;4.50;;;22.10;70.70;;;;;;4935794;28;20035;-78
2022/08/30 10:44:05;;;;;;;6.75;4.20;;;22.10;70.80;;;;;;4953110;29;20024;-78
2022/08/30 10:46:59;;;;;;;5.47;3.97;;;22.10;70.90;;;;;;4952395;28;20026;-78
2022/08/30 10:49:30;;;;;;;6.10;4.13;;;22.10;70.70;;;;;;4935809;29;20046;-78
2022/08/30 10:52:10;;;;;;;4.90;3.42;;;22.10;70.70;;;;;;4953513;29;20604;-78
2022/08/30 10:54:41;;;;;;;5.13;3.10;;;22.20;70.30;;;;;;4936593;28;20047;-79
2022/08/30 10:57:07;;;;;;;5.13;3.70;;;22.20;70.30;;;;;;4952844;28;20485;-79
2022/08/30 10:59:36;;;;;;;5.50;3.75;;;22.30;70.20;;;;;;4952870;28;20092;-79
2022/08/30 11:02:14;;;;;;;5.32;3.63;;;22.30;70.30;;;;;;4952614;28;20019;-78
2022/08/30 11:04:54;;;;;;;5.15;3.42;;;22.30;70.10;;;;;;4952677;28;20047;-78
2022/08/30 11:08:01;;;;;;;6.53;3.70;;;22.30;70.30;;;;;;4935418;29;20035;-78
2022/08/30 11:10:43;;;;;;;4.72;3.30;;;22.30;70.30;;;;;;4955027;28;20085;-78
2022/08/30 11:13:16;;;;;;;5.55;3.00;;;22.20;70.40;;;;;;4935823;29;20126;-78
2022/08/30 11:15:57;;;;;;;5.05;3.03;;;22.20;70.30;;;;;;4935122;28;20023;-78
2022/08/30 11:18:23;;;;;;;;;;;22.20;70.40;;;;;;4952579;28;20097;-78
2022/08/30 11:20:52;;;;;;;5.05;3.22;;;22.20;70.40;;;;;;4952303;28;19913;-78
2022/08/30 11:23:18;;;;;;;5.10;3.30;;;22.20;70.70;;;;;;4935213;29;20027;-78
2022/08/30 11:26:04;;;;;;;4.20;2.78;;;22.20;70.60;;;;;;4952035;28;20402;-78
2022/08/30 11:28:36;;;;;;;4.95;2.83;;;22.20;70.80;;;;;;4952237;29;20513;-78
2022/08/30 11:31:08;;;;;;;;;;;22.20;70.60;;;;;;4935483;28;20026;-78
2022/08/30 11:33:52;;;;;;;4.53;2.75;;;22.20;70.30;;;;;;4952292;28;19920;-79
2022/08/30 11:36:37;;;;;;;4.30;2.60;;;22.20;70.50;;;;;;4951872;28;20528;-78
2022/08/30 11:39:08;;;;;;;4.70;2.78;;;22.20;70.20;;;;;;4936484;29;20023;-78
2022/08/30 11:41:44;;;;;;;;;;;22.30;69.80;;;;;;4953042;29;20077;-79
2022/08/30 11:44:27;;;;;;;4.72;2.50;;;22.30;69.00;;;;;;4952599;28;19906;-79
2022/08/30 11:47:01;;;;;;;3.70;2.38;;;22.30;68.60;;;;;;4935530;29;20030;-80
2022/08/30 11:49:44;;;;;;;4.20;2.47;;;22.30;68.80;;;;;;4952724;29;20020;-79
2022/08/30 11:52:26;;;;;;;3.92;2.35;;;22.30;68.90;;;;;;4935636;29;20031;-79
2022/08/30 11:55:17;;;;;;;3.85;2.45;;;22.30;68.80;;;;;;4935278;29;20093;-78
2022/08/30 11:57:59;;;;;;;3.55;2.25;;;22.30;69.00;;;;;;4935387;29;20085;-79
2022/08/30 12:01:09;;;;;;;3.92;2.33;;;22.30;69.20;;;;;;4952201;29;20038;-78
2022/08/30 12:03:35;;;;;;;4.03;2.10;;;22.30;69.10;;;;;;4952233;29;20043;-79
2022/08/30 12:06:04;;;;;;;4.03;2.08;;;22.20;69.00;;;;;;4934526;28;20080;-79
2022/08/30 12:08:35;;;;;;;5.25;2.17;;;22.20;69.20;;;;;;4951992;28;20031;-79
2022/08/30 12:11:03;;;;;;;;;;;22.20;69.30;;;;;;4952483;28;20485;-78
2022/08/30 12:13:35;;;;;;;4.10;2.00;;;22.20;69.30;;;;;;4934821;28;20112;-79
2022/08/30 12:16:15;;;;;;;3.50;2.00;;;22.10;69.50;;;;;;4934277;28;20107;-78
2022/08/30 12:18:51;;;;;;;3.53;1.85;;;22.10;69.50;;;;;;4934752;28;20038;-79
2022/08/30 12:21:19;;;;;;;3.33;1.75;;;22.20;69.30;;;;;;4935001;29;20451;-79
2022/08/30 12:24:17;;;;;;;3.45;1.90;;;22.10;69.30;;;;;;4934863;28;20146;-78
2022/08/30 12:26:45;;;;;;;3.72;1.80;;;22.20;69.40;;;;;;4934554;29;20030;-78
2022/08/30 12:29:23;;;;;;;2.65;1.70;;;22.20;69.20;;;;;;4951681;28;20027;-79
2022/08/30 12:31:55;;;;;;;3.25;1.80;;;22.20;68.90;;;;;;4933983;28;20031;-78
2022/08/30 12:34:45;;;;;;;3.13;1.83;;;22.20;68.90;;;;;;4951654;28;20092;-78
2022/08/30 12:37:36;;;;;;;2.88;1.70;;;22.30;69.00;;;;;;4954039;28;20071;-80
2022/08/30 12:40:07;;;;;;;3.30;1.90;;;22.30;69.10;;;;;;4951787;29;20077;-78
2022/08/30 12:42:43;;;;;;;2.47;1.83;;;22.20;69.20;;;;;;4951344;29;20035;-79
2022/08/30 12:45:19;;;;;;;3.05;1.80;;;22.20;69.20;;;;;;4951245;29;20501;-79
2022/08/30 12:47:56;;;;;;;2.78;1.70;;;22.20;69.30;;;;;;4934403;29;20034;-79
2022/08/30 12:50:28;;;;;;;4.15;1.75;;;22.10;69.10;;;;;;4951727;29;20073;-78
2022/08/30 12:53:01;;;;;;;3.35;1.90;;;22.10;68.80;;;;;;4934336;29;20023;-78
2022/08/30 12:55:29;;;;;;;3.63;1.80;;;22.10;69.10;;;;;;4951105;29;20106;-79
2022/08/30 12:58:00;;;;;;;3.55;1.98;;;22.10;69.20;;;;;;4951206;28;20039;-78
2022/08/30 13:00:44;;;;;;;3.78;2.10;;;22.10;69.30;;;;;;4951245;29;20038;-78
2022/08/30 13:03:22;;;;;;;2.80;1.70;;;22.00;69.20;;;;;;4951117;29;20494;-78
2022/08/30 13:05:48;;;;;;;3.13;1.80;;;22.00;69.20;;;;;;4933749;28;20054;-78